Tonganoxie, KS (66086)

4:18 PM CDT on April 25, 2017 (GMT -0500)
LV-JF County Line-WD0EMR | | Change Station

Elev 1096 ft 39.06 °N, 95.19 °W | Updated 16 seconds ago

Overcast
Overcast
71.4 °F
Feels Like 76 °F
N
3.5
Wind Variable Wind from West
Gusts 4.5 mph

Today
High -- | Low -- °F
--% Chance of Precip.
Yesterday
High -- | Low -- °F
Precip. -- in
Pressure 29.39 in
Visibility 10.0 miles
Clouds Overcast 4300 ft
Heat Index 76 °F
Dew Point 56 °F
Humidity 59%
Rainfall 0.00 in
Snow Depth Not available.
6:29 AM 8:07 PM
Waning Crescent, 1% visible
METAR KLWC 252052Z AUTO VRB04KT 10SM OVC043 22/14 A2941 RMK AO2 SLP952 T02170139 53000
Pressure 29.39 in
Visibility 10.0 miles
Clouds Overcast 4300 ft
Heat Index 76 °F
Dew Point 56 °F
Humidity 59%
Rainfall 0.00 in
Snow Depth Not available.
6:29 AM 8:07 PM
Waning Crescent, 1% visible
METAR KLWC 252052Z AUTO VRB04KT 10SM OVC043 22/14 A2941 RMK AO2 SLP952 T02170139 53000

Get Severe Weather Alerts

Thanks for signing up!

Be on the lookout for a verification email in your inbox.

You'll start receiving the daily forecast at 8 AM.

×

10-Day Weather Forecast

Almanac

Astronomy

Apr. 25, 2017 Rise Set
Actual Time
Civil Twilight
Nautical Twilight
Astronomical Twilight
Moon
Length of Visible Light
Length of Day
Tomorrow will be .
, % of the Moon is Illuminated

Today's Extremes

State Highs State Lows

Community

WunderPhotos

WunderBlog® & News

Nearby

Air Quality

  Air Quality AQ Index Pollutant
Not available.

Snow Depth

Station Depth Elevation

Earthquake Activity

City Distance Mag. Time & Date
Minimum magnitude displayed is 2.5.

Coastal Water Temperatures

Place Temperature

Stations

Nearby Weather Stations

Station Location Temp. Windchill Dew Point Humidity Wind Precip. Elev Updated Type
                   

Watches & Warnings

There are currently no watches in effect.